Time;durP1;ratioP1;P1;durP2;ratioP2;P2;SDS_P1;SDS_P2;PMS_P1;PMS_P2;Temp;Humidity;BMP_temperature;BMP_pressure;BME280_temperature;BME280_humidity;BME280_pressure;Samples;Min_cycle;Max_cycle;Signal;HPM_P1;HPM_P2
2019/08/24 00:00:45;;;;;;;19.1;17.1;;;;;;;19.49;84.23535;943.2219;;;;
2019/08/24 00:03:21;;;;;;;20.8;16.6;;;;;;;19.64;83.51855;943.1609;;;;
2019/08/24 00:06:21;;;;;;;20.9;17.2;;;;;;;19.78;82.54199;943.1414;;;;
2019/08/24 00:08:57;;;;;;;20.2;16.5;;;;;;;19.89;82.21387;943.1517;;;;
2019/08/24 00:11:30;;;;;;;19.4;16.1;;;;;;;19.84;82.33203;943.1309;;;;
2019/08/24 00:14:15;;;;;;;23;17.5;;;;;;;19.57;83.52832;943.1537;;;;
2019/08/24 00:16:46;;;;;;;21.7;17.8;;;;;;;19.43;84.22363;943.1348;;;;
2019/08/24 00:19:13;;;;;;;22;17.1;;;;;;;19.43;84.23535;943.1284;;;;
2019/08/24 00:22:27;;;;;;;21.3;17.4;;;;;;;19.53;83.58984;943.1428;;;;
2019/08/24 00:24:34;;;;;;;20.4;16.5;;;;;;;19.44;83.61914;943.1186;;;;
2019/08/24 00:26:59;;;;;;;20.4;18.1;;;;;;;19.46;83.58789;943.1586;;;;
2019/08/24 00:29:28;;;;;;;22.3;18.5;;;;;;;19.47;83.49805;943.2004;;;;
2019/08/24 00:32:01;;;;;;;22.5;18;;;;;;;19.52;83.11035;943.1923;;;;
2019/08/24 00:34:26;;;;;;;21;17.5;;;;;;;19.57;82.75879;943.1287;;;;
2019/08/24 00:37:00;;;;;;;19.3;17.2;;;;;;;19.55;82.78906;943.1243;;;;
2019/08/24 00:39:27;;;;;;;23.5;17.6;;;;;;;19.57;82.64258;943.077;;;;
2019/08/24 00:42:06;;;;;;;20.8;16.8;;;;;;;19.59;82.32129;943.0386;;;;
2019/08/24 00:44:29;;;;;;;18;16.2;;;;;;;19.56;82.47754;943.019;;;;
2019/08/24 00:47:03;;;;;;;20.2;17.5;;;;;;;19.32;83.52734;943.0936;;;;
2019/08/24 00:49:37;;;;;;;20.5;17.8;;;;;;;19.07;84.48047;943.0126;;;;
2019/08/24 00:52:10;;;;;;;20;17.9;;;;;;;19.01;84.77246;942.9825;;;;
2019/08/24 00:54:45;;;;;;;20.1;17.1;;;;;;;19.06;84.30469;942.995;;;;
2019/08/24 00:57:12;;;;;;;19.3;17.3;;;;;;;19.03;84.3457;942.9712;;;;
2019/08/24 00:59:48;;;;;;;21.6;18.8;;;;;;;18.8;85.17383;942.9863;;;;
2019/08/24 01:02:26;;;;;;;22.7;19.4;;;;;;;18.48;86.82129;942.9328;;;;
2019/08/24 01:05:00;;;;;;;23.7;21.1;;;;;;;18.35;87.70313;942.9261;;;;
2019/08/24 01:07:35;;;;;;;24;21;;;;;;;18.44;87.39355;942.8431;;;;
2019/08/24 01:10:16;;;;;;;22.5;19.8;;;;;;;18.5;87;942.9067;;;;
2019/08/24 01:12:51;;;;;;;22.3;19.3;;;;;;;18.61;86.33496;942.9164;;;;
2019/08/24 01:15:21;;;;;;;21.1;18.9;;;;;;;18.73;85.8125;942.9194;;;;
2019/08/24 01:17:55;;;;;;;22.6;19.9;;;;;;;18.64;85.91113;942.9264;;;;
2019/08/24 01:20:32;;;;;;;21;18.3;;;;;;;18.64;85.62109;942.8755;;;;
2019/08/24 01:23:00;;;;;;;24;18;;;;;;;;;;;;;
2019/08/24 01:25:22;;;;;;;22.3;18.3;;;;;;;;;;;;;
2019/08/24 01:27:48;;;;;;;24.7;19.5;;;;;;;;;;;;;
2019/08/24 01:30:11;;;;;;;21.5;19.2;;;;;;;;;;;;;
2019/08/24 01:32:45;;;;;;;22.7;18.9;;;;;;;;;;;;;
2019/08/24 01:35:13;;;;;;;21.6;18.2;;;;;;;;;;;;;
2019/08/24 01:40:04;;;;;;;20.3;18.2;;;;;;;;;;;;;
2019/08/24 01:42:34;;;;;;;20.8;17.9;;;;;;;;;;;;;
2019/08/24 01:44:56;;;;;;;21.9;19.2;;;;;;;;;;;;;
2019/08/24 01:47:27;;;;;;;22.9;19.5;;;;;;;;;;;;;
2019/08/24 01:49:49;;;;;;;20.9;18.6;;;;;;;;;;;;;
2019/08/24 01:52:26;;;;;;;19.8;17.7;;;;;;;;;;;;;
2019/08/24 01:54:51;;;;;;;19.2;17.3;;;;;;;;;;;;;
2019/08/24 01:57:29;;;;;;;19.2;17.1;;;;;;;;;;;;;
2019/08/24 01:59:53;;;;;;;19.4;16.4;;;;;;;;;;;;;
2019/08/24 02:02:13;;;;;;;18.1;16.2;;;;;;;;;;;;;
2019/08/24 02:04:41;;;;;;;20.4;17.1;;;;;;;;;;;;;
2019/08/24 02:07:04;;;;;;;19.5;17;;;;;;;;;;;;;
2019/08/24 02:09:36;;;;;;;19.6;16.4;;;;;;;;;;;;;
2019/08/24 02:12:00;;;;;;;19.7;16.8;;;;;;;;;;;;;
2019/08/24 02:16:55;;;;;;;20.3;17.3;;;;;;;;;;;;;
2019/08/24 02:19:19;;;;;;;19.6;16.6;;;;;;;;;;;;;
2019/08/24 02:21:46;;;;;;;21.9;17.2;;;;;;;;;;;;;
2019/08/24 02:24:18;;;;;;;19.7;16.7;;;;;;;;;;;;;
2019/08/24 02:26:37;;;;;;;20.4;16.4;;;;;;;;;;;;;
2019/08/24 02:29:00;;;;;;;19.4;16.9;;;;;;;;;;;;;
2019/08/24 02:31:32;;;;;;;19.5;16.6;;;;;;;;;;;;;
2019/08/24 02:33:55;;;;;;;19.9;16.5;;;;;;;;;;;;;
2019/08/24 02:36:28;;;;;;;22.2;17.6;;;;;;;;;;;;;
2019/08/24 02:38:52;;;;;;;19.2;17;;;;;;;;;;;;;
2019/08/24 02:41:22;;;;;;;21.3;16.8;;;;;;;;;;;;;
2019/08/24 02:43:55;;;;;;;19.7;16.4;;;;;;;;;;;;;
2019/08/24 02:46:26;;;;;;;20.4;16.3;;;;;;;;;;;;;
2019/08/24 02:48:47;;;;;;;18.4;16.1;;;;;;;;;;;;;
2019/08/24 02:51:16;;;;;;;18.7;16.7;;;;;;;;;;;;;
2019/08/24 02:53:44;;;;;;;21.9;17.5;;;;;;;;;;;;;
2019/08/24 02:56:05;;;;;;;20.8;17.4;;;;;;;;;;;;;
2019/08/24 02:58:33;;;;;;;21.5;16.9;;;;;;;;;;;;;
2019/08/24 03:00:59;;;;;;;19.2;17;;;;;;;;;;;;;
2019/08/24 03:03:30;;;;;;;19.5;16.4;;;;;;;;;;;;;
2019/08/24 03:06:20;;;;;;;19.5;16.8;;;;;;;;;;;;;
2019/08/24 03:08:34;;;;;;;17.9;16;;;;;;;;;;;;;
2019/08/24 03:10:58;;;;;;;19.8;15.5;;;;;;;;;;;;;
2019/08/24 03:13:27;;;;;;;19.6;15.3;;;;;;;;;;;;;
2019/08/24 03:15:49;;;;;;;19.6;17.5;;;;;;;;;;;;;
2019/08/24 03:18:14;;;;;;;17.9;15.7;;;;;;;;;;;;;
2019/08/24 03:20:40;;;;;;;17.5;15.1;;;;;;;;;;;;;
2019/08/24 03:23:13;;;;;;;19.1;16.4;;;;;;;;;;;;;
2019/08/24 03:26:15;;;;;;;17.6;15.8;;;;;;;;;;;;;
2019/08/24 03:28:36;;;;;;;18.9;16.1;;;;;;;;;;;;;
2019/08/24 03:31:00;;;;;;;20.1;16.4;;;;;;;;;;;;;
2019/08/24 03:33:28;;;;;;;19.2;16.3;;;;;;;;;;;;;
2019/08/24 03:35:58;;;;;;;21.8;16;;;;;;;;;;;;;
2019/08/24 03:38:19;;;;;;;19;15.7;;;;;;;;;;;;;
2019/08/24 03:40:59;;;;;;;18;16.1;;;;;;;;;;;;;
2019/08/24 03:43:12;;;;;;;21.6;18.2;;;;;;;;;;;;;
2019/08/24 03:45:37;;;;;;;23.3;17.5;;;;;;;;;;;;;
2019/08/24 03:48:04;;;;;;;21.8;17;;;;;;;;;;;;;
2019/08/24 03:50:30;;;;;;;18.2;16.4;;;;;;;;;;;;;
2019/08/24 03:52:56;;;;;;;19.5;16.4;;;;;;;;;;;;;
2019/08/24 03:55:26;;;;;;;19.7;16.4;;;;;;;;;;;;;
2019/08/24 03:57:58;;;;;;;18.5;16.5;;;;;;;;;;;;;
2019/08/24 04:02:39;;;;;;;19.3;17.2;;;;;;;16.73;86.70801;942.6918;;;;
2019/08/24 04:05:17;;;;;;;20.6;17.4;;;;;;;16.69;86.50391;942.7258;;;;
2019/08/24 04:07:52;;;;;;;22.8;19.8;;;;;;;16.51;87.78809;942.7811;;;;
2019/08/24 04:10:14;;;;;;;24.2;18.7;;;;;;;16.56;87.68262;942.7302;;;;
2019/08/24 04:12:40;;;;;;;19.6;17.5;;;;;;;16.63;87.1748;942.7003;;;;
2019/08/24 04:15:13;;;;;;;20;16.9;;;;;;;16.69;86.7373;942.6928;;;;
2019/08/24 04:17:42;;;;;;;19.5;17.5;;;;;;;16.59;87.17871;942.6527;;;;
2019/08/24 04:20:22;;;;;;;22.1;18.3;;;;;;;16.38;88.3291;942.6288;;;;
2019/08/24 04:22:57;;;;;;;19.1;16.8;;;;;;;16.62;87.85547;942.5467;;;;
2019/08/24 04:25:28;;;;;;;18.2;16.2;;;;;;;16.78;86.10254;942.5644;;;;
2019/08/24 04:27:51;;;;;;;21.4;19.1;;;;;;;16.56;87.87988;942.6023;;;;
2019/08/24 04:30:20;;;;;;;23.4;18.7;;;;;;;16.23;89.28223;942.5172;;;;
2019/08/24 04:33:01;;;;;;;23.4;19;;;;;;;16.1;90.30664;942.5328;;;;
2019/08/24 04:35:35;;;;;;;23.9;20.4;;;;;;;16.1;90.09863;942.5562;;;;
2019/08/24 04:38:26;;;;;;;22.1;17.9;;;;;;;16.36;88.83301;942.6072;;;;
2019/08/24 04:41:21;;;;;;;22.1;18.1;;;;;;;16.55;87.36719;942.5984;;;;
2019/08/24 04:43:44;;;;;;;19.8;17;;;;;;;16.67;86.82227;942.5909;;;;
2019/08/24 04:46:18;;;;;;;19.8;17.7;;;;;;;16.73;86.66113;942.5736;;;;
2019/08/24 04:49:00;;;;;;;20.1;16.3;;;;;;;16.84;85.87402;942.5843;;;;
2019/08/24 04:51:34;;;;;;;22.4;15.5;;;;;;;16.89;85.66211;942.5767;;;;
2019/08/24 04:54:05;;;;;;;19.1;15.3;;;;;;;;;;;;;
2019/08/24 04:56:28;;;;;;;19.4;15.8;;;;;;;;;;;;;
2019/08/24 04:58:54;;;;;;;19.3;15.5;;;;;;;;;;;;;
2019/08/24 05:01:21;;;;;;;19.3;15.4;;;;;;;;;;;;;
2019/08/24 05:03:45;;;;;;;20.8;15.9;;;;;;;;;;;;;
2019/08/24 05:06:12;;;;;;;18.7;15.6;;;;;;;;;;;;;
2019/08/24 05:08:41;;;;;;;21.3;15;;;;;;;;;;;;;
2019/08/24 05:11:05;;;;;;;17.7;14.6;;;;;;;;;;;;;
2019/08/24 05:13:36;;;;;;;18.5;15.7;;;;;;;;;;;;;
2019/08/24 05:16:02;;;;;;;20.5;17.1;;;;;;;;;;;;;
2019/08/24 05:18:26;;;;;;;18.1;16.2;;;;;;;;;;;;;
2019/08/24 05:20:55;;;;;;;17.9;15.8;;;;;;;;;;;;;
2019/08/24 05:23:18;;;;;;;17.6;15.7;;;;;;;;;;;;;
2019/08/24 05:25:43;;;;;;;17.4;15.6;;;;;;;;;;;;;
2019/08/24 05:28:07;;;;;;;19.3;16.6;;;;;;;;;;;;;
2019/08/24 05:30:41;;;;;;;18;15.5;;;;;;;;;;;;;
2019/08/24 05:33:09;;;;;;;17.3;15.4;;;;;;;;;;;;;
2019/08/24 05:35:32;;;;;;;18.2;14.1;;;;;;;;;;;;;
2019/08/24 05:37:58;;;;;;;16.2;13.8;;;;;;;;;;;;;
2019/08/24 05:40:30;;;;;;;15.9;12.5;;;;;;;;;;;;;
2019/08/24 05:43:02;;;;;;;13.8;12.3;;;;;;;;;;;;;
2019/08/24 05:45:23;;;;;;;14.6;11.6;;;;;;;;;;;;;
2019/08/24 05:47:55;;;;;;;13.3;11.2;;;;;;;;;;;;;
2019/08/24 05:50:21;;;;;;;12.8;10.4;;;;;;;;;;;;;
2019/08/24 05:52:46;;;;;;;11.4;9.7;;;;;;;;;;;;;
2019/08/24 05:55:15;;;;;;;10.8;9.3;;;;;;;;;;;;;
2019/08/24 05:57:42;;;;;;;10.7;8.9;;;;;;;;;;;;;
2019/08/24 06:00:18;;;;;;;11.7;9.3;;;;;;;;;;;;;
2019/08/24 06:02:40;;;;;;;11;8.7;;;;;;;;;;;;;
2019/08/24 06:05:04;;;;;;;10.1;8.5;;;;;;;;;;;;;
2019/08/24 06:07:37;;;;;;;9.9;8.6;;;;;;;;;;;;;
2019/08/24 06:10:02;;;;;;;10.2;8;;;;;;;;;;;;;
2019/08/24 06:12:28;;;;;;;12.2;8.5;;;;;;;;;;;;;
2019/08/24 06:14:56;;;;;;;17.1;8.8;;;;;;;;;;;;;
2019/08/24 06:17:19;;;;;;;9.9;8.2;;;;;;;;;;;;;
2019/08/24 06:19:44;;;;;;;12.2;8;;;;;;;;;;;;;
2019/08/24 06:22:08;;;;;;;8.6;7.3;;;;;;;;;;;;;
2019/08/24 06:24:37;;;;;;;12.7;7.8;;;;;;;;;;;;;
2019/08/24 06:27:15;;;;;;;13;8.3;;;;;;;;;;;;;
2019/08/24 06:29:43;;;;;;;9.2;7.5;;;;;;;;;;;;;
2019/08/24 06:32:49;;;;;;;9.7;7.2;;;;;;;;;;;;;
2019/08/24 06:34:31;;;;;;;10.6;7.6;;;;;;;;;;;;;
2019/08/24 06:36:56;;;;;;;9.8;7.2;;;;;;;;;;;;;
2019/08/24 06:39:23;;;;;;;8.2;6.6;;;;;;;;;;;;;
2019/08/24 06:41:46;;;;;;;7.8;6.4;;;;;;;;;;;;;
2019/08/24 06:44:11;;;;;;;10.8;7.1;;;;;;;;;;;;;
2019/08/24 06:46:39;;;;;;;12.6;8;;;;;;;;;;;;;
2019/08/24 06:49:05;;;;;;;10.4;7.2;;;;;;;;;;;;;
2019/08/24 06:51:31;;;;;;;9.1;7.2;;;;;;;;;;;;;
2019/08/24 06:53:56;;;;;;;13.2;8.1;;;;;;;;;;;;;
2019/08/24 06:56:24;;;;;;;9.2;8.2;;;;;;;;;;;;;
2019/08/24 06:58:47;;;;;;;10.4;8.5;;;;;;;;;;;;;
2019/08/24 07:01:12;;;;;;;11.6;8.1;;;;;;;;;;;;;
2019/08/24 07:03:36;;;;;;;9.9;8;;;;;;;;;;;;;
2019/08/24 07:06:06;;;;;;;9.6;8;;;;;;;;;;;;;
2019/08/24 07:08:28;;;;;;;10.2;8.1;;;;;;;;;;;;;
2019/08/24 07:10:52;;;;;;;8.5;7.6;;;;;;;;;;;;;
2019/08/24 07:13:28;;;;;;;9.2;7.4;;;;;;;;;;;;;
2019/08/24 07:15:50;;;;;;;8;7.2;;;;;;;;;;;;;
2019/08/24 07:18:29;;;;;;;9.3;6.5;;;;;;;;;;;;;
2019/08/24 07:20:45;;;;;;;6.7;6.1;;;;;;;;;;;;;
2019/08/24 07:23:15;;;;;;;8.1;6.4;;;;;;;;;;;;;
2019/08/24 07:25:47;;;;;;;8.1;6.2;;;;;;;;;;;;;
2019/08/24 07:28:13;;;;;;;7.5;6.6;;;;;;;;;;;;;
2019/08/24 07:30:36;;;;;;;8;6;;;;;;;;;;;;;
2019/08/24 07:33:03;;;;;;;9;6.6;;;;;;;;;;;;;
2019/08/24 07:35:29;;;;;;;7.6;6.3;;;;;;;;;;;;;
2019/08/24 07:37:53;;;;;;;8.5;6.1;;;;;;;;;;;;;
2019/08/24 07:40:19;;;;;;;8.5;6.3;;;;;;;;;;;;;
2019/08/24 07:42:48;;;;;;;10.1;6.2;;;;;;;;;;;;;
2019/08/24 07:45:13;;;;;;;7.1;6.2;;;;;;;;;;;;;
2019/08/24 07:47:39;;;;;;;9.9;6.5;;;;;;;;;;;;;
2019/08/24 07:50:05;;;;;;;8.8;6.1;;;;;;;;;;;;;
2019/08/24 07:52:29;;;;;;;7.8;6;;;;;;;;;;;;;
2019/08/24 07:55:00;;;;;;;6.6;6;;;;;;;;;;;;;
2019/08/24 07:57:27;;;;;;;6.9;6.2;;;;;;;;;;;;;
2019/08/24 07:59:58;;;;;;;6.7;6;;;;;;;;;;;;;
2019/08/24 08:02:23;;;;;;;6.6;5.9;;;;;;;;;;;;;
2019/08/24 08:04:53;;;;;;;8.2;6.4;;;;;;;;;;;;;
2019/08/24 08:07:23;;;;;;;8;6.3;;;;;;;;;;;;;
2019/08/24 08:09:44;;;;;;;8.2;6.7;;;;;;;;;;;;;
2019/08/24 08:12:12;;;;;;;8;6.4;;;;;;;;;;;;;
2019/08/24 08:14:46;;;;;;;8.2;6.6;;;;;;;;;;;;;
2019/08/24 08:17:19;;;;;;;7.8;7.1;;;;;;;;;;;;;
2019/08/24 08:19:49;;;;;;;9.2;7.1;;;;;;;;;;;;;
2019/08/24 08:22:32;;;;;;;7.4;6.7;;;;;;;;;;;;;
2019/08/24 08:24:44;;;;;;;7.6;6.8;;;;;;;;;;;;;
2019/08/24 08:27:09;;;;;;;7.1;6.4;;;;;;;;;;;;;
2019/08/24 08:29:37;;;;;;;7.2;6.6;;;;;;;;;;;;;
2019/08/24 08:31:59;;;;;;;7.5;6.8;;;;;;;;;;;;;
2019/08/24 08:34:26;;;;;;;7;6.3;;;;;;;;;;;;;
2019/08/24 08:36:50;;;;;;;7.3;6.5;;;;;;;;;;;;;
2019/08/24 08:39:21;;;;;;;6.3;5.7;;;;;;;;;;;;;
2019/08/24 08:41:52;;;;;;;7.2;6.5;;;;;;;;;;;;;
2019/08/24 08:44:23;;;;;;;7.1;6.4;;;;;;;;;;;;;
2019/08/24 08:46:42;;;;;;;6.2;5.7;;;;;;;;;;;;;
2019/08/24 08:49:15;;;;;;;6.2;5.6;;;;;;;;;;;;;
2019/08/24 08:51:35;;;;;;;7.2;5.7;;;;;;;;;;;;;
2019/08/24 08:54:06;;;;;;;6.7;6;;;;;;;;;;;;;
2019/08/24 08:56:32;;;;;;;6.4;5.8;;;;;;;;;;;;;
2019/08/24 08:58:59;;;;;;;7.1;6.4;;;;;;;;;;;;;
2019/08/24 09:01:26;;;;;;;6.4;5.6;;;;;;;;;;;;;
2019/08/24 09:03:50;;;;;;;6.8;6.1;;;;;;;;;;;;;
2019/08/24 09:06:21;;;;;;;6.7;6.1;;;;;;;;;;;;;
2019/08/24 09:08:42;;;;;;;6.6;6;;;;;;;;;;;;;
2019/08/24 09:11:07;;;;;;;7.4;6.3;;;;;;;;;;;;;
2019/08/24 09:16:09;;;;;;;6.8;6.2;;;;;;;;;;;;;
2019/08/24 09:18:32;;;;;;;6.7;6;;;;;;;;;;;;;
2019/08/24 09:20:58;;;;;;;7.4;6.8;;;;;;;;;;;;;
2019/08/24 09:23:21;;;;;;;7.5;6.8;;;;;;;;;;;;;
2019/08/24 09:25:51;;;;;;;10;6.8;;;;;;;;;;;;;
2019/08/24 09:28:16;;;;;;;8.7;7.1;;;;;;;;;;;;;
2019/08/24 09:30:47;;;;;;;8.1;7.4;;;;;;;;;;;;;
2019/08/24 09:33:14;;;;;;;8.8;7.4;;;;;;;;;;;;;
2019/08/24 09:35:45;;;;;;;8.3;7.5;;;;;;;;;;;;;
2019/08/24 09:38:12;;;;;;;10.4;7.5;;;;;;;;;;;;;
2019/08/24 09:40:35;;;;;;;8.6;7.7;;;;;;;;;;;;;
2019/08/24 09:43:04;;;;;;;8.5;7.5;;;;;;;;;;;;;
2019/08/24 09:45:35;;;;;;;8.4;7.5;;;;;;;;;;;;;
2019/08/24 09:48:10;;;;;;;8.1;7.3;;;;;;;;;;;;;
2019/08/24 09:50:27;;;;;;;9.3;8.2;;;;;;;;;;;;;
2019/08/24 09:52:50;;;;;;;8.7;7.8;;;;;;;;;;;;;
2019/08/24 09:55:16;;;;;;;8.7;7.9;;;;;;;;;;;;;
2019/08/24 09:57:43;;;;;;;9.2;8.2;;;;;;;;;;;;;
2019/08/24 10:00:08;;;;;;;8.8;7.9;;;;;;;;;;;;;
2019/08/24 10:02:32;;;;;;;8.9;8;;;;;;;;;;;;;
2019/08/24 10:05:08;;;;;;;11.3;8.4;;;;;;;;;;;;;
2019/08/24 10:07:31;;;;;;;8.1;7.3;;;;;;;;;;;;;
2019/08/24 10:09:58;;;;;;;8.8;7.9;;;;;;;;;;;;;
2019/08/24 10:12:23;;;;;;;9.3;8;;;;;;;;;;;;;
2019/08/24 10:14:48;;;;;;;8.9;8;;;;;;;;;;;;;
2019/08/24 10:17:22;;;;;;;8.6;7.8;;;;;;;;;;;;;
2019/08/24 10:19:43;;;;;;;8.6;7.7;;;;;;;;;;;;;
2019/08/24 10:22:12;;;;;;;9.8;7.7;;;;;;;;;;;;;
2019/08/24 10:24:35;;;;;;;8.5;7.1;;;;;;;;;;;;;
2019/08/24 10:26:59;;;;;;;8.6;7.7;;;;;;;;;;;;;
2019/08/24 10:29:25;;;;;;;8.2;7.4;;;;;;;;;;;;;
2019/08/24 10:31:54;;;;;;;8;7.2;;;;;;;;;;;;;
2019/08/24 10:34:19;;;;;;;8.8;7.3;;;;;;;;;;;;;
2019/08/24 10:36:46;;;;;;;8.1;7.3;;;;;;;;;;;;;
2019/08/24 10:39:15;;;;;;;8.8;7.8;;;;;;;;;;;;;
2019/08/24 10:41:37;;;;;;;8.1;7.3;;;;;;;;;;;;;
2019/08/24 10:44:01;;;;;;;7.9;7.1;;;;;;;;;;;;;
2019/08/24 10:46:37;;;;;;;8.1;7.3;;;;;;;;;;;;;
2019/08/24 10:48:52;;;;;;;7.9;7.2;;;;;;;;;;;;;
2019/08/24 10:51:17;;;;;;;8.4;7.6;;;;;;;;;;;;;
2019/08/24 10:53:42;;;;;;;8.5;7.3;;;;;;;;;;;;;
2019/08/24 10:56:10;;;;;;;9;7.1;;;;;;;;;;;;;
2019/08/24 10:58:33;;;;;;;8.3;7.1;;;;;;;;;;;;;
2019/08/24 11:00:59;;;;;;;8.7;7.3;;;;;;;;;;;;;
2019/08/24 11:03:24;;;;;;;8.6;7.7;;;;;;;;;;;;;
2019/08/24 11:05:59;;;;;;;8.4;7.5;;;;;;;;;;;;;
2019/08/24 11:08:25;;;;;;;8.9;7.5;;;;;;;;;;;;;
2019/08/24 11:10:51;;;;;;;8.8;7.4;;;;;;;;;;;;;
2019/08/24 11:13:20;;;;;;;9.2;6.9;;;;;;;;;;;;;
2019/08/24 11:15:45;;;;;;;7.7;7;;;;;;;;;;;;;
2019/08/24 11:18:09;;;;;;;7.8;7;;;;;;;;;;;;;
2019/08/24 11:20:42;;;;;;;7.2;6.5;;;;;;;;;;;;;
2019/08/24 11:23:10;;;;;;;8.1;6.5;;;;;;;;;;;;;
2019/08/24 11:25:33;;;;;;;8.3;7.4;;;;;;;;;;;;;
2019/08/24 11:27:59;;;;;;;7.2;6.5;;;;;;;;;;;;;
2019/08/24 11:30:22;;;;;;;6.8;6.2;;;;;;;;;;;;;
2019/08/24 11:32:50;;;;;;;6.7;6;;;;;;;;;;;;;
2019/08/24 11:35:15;;;;;;;13.8;6.7;;;;;;;;;;;;;
2019/08/24 11:37:46;;;;;;;7.4;6.7;;;;;;;;;;;;;
2019/08/24 11:40:09;;;;;;;7.7;6.7;;;;;;;;;;;;;
2019/08/24 11:42:33;;;;;;;8.9;7;;;;;;;;;;;;;
2019/08/24 11:44:59;;;;;;;7.1;6.4;;;;;;;;;;;;;
2019/08/24 11:47:31;;;;;;;10.7;7.2;;;;;;;;;;;;;
2019/08/24 11:49:49;;;;;;;10.6;7;;;;;;;;;;;;;
2019/08/24 11:52:14;;;;;;;7.6;6.7;;;;;;;;;;;;;
2019/08/24 11:54:39;;;;;;;8.1;6.7;;;;;;;;;;;;;
2019/08/24 11:57:05;;;;;;;7.6;6.8;;;;;;;;;;;;;
2019/08/24 11:59:31;;;;;;;7.4;6.7;;;;;;;;;;;;;
2019/08/24 12:01:56;;;;;;;8.3;6.8;;;;;;;;;;;;;
2019/08/24 12:04:20;;;;;;;7.6;6.5;;;;;;;;;;;;;
2019/08/24 12:06:48;;;;;;;8;6.5;;;;;;;;;;;;;
2019/08/24 12:09:11;;;;;;;7.1;6.4;;;;;;;;;;;;;
2019/08/24 12:11:37;;;;;;;7.3;6.6;;;;;;;;;;;;;
2019/08/24 12:14:07;;;;;;;7.8;7;;;;;;;;;;;;;
2019/08/24 12:16:29;;;;;;;7.5;6.7;;;;;;;;;;;;;
2019/08/24 12:18:55;;;;;;;7.7;6.9;;;;;;;;;;;;;
2019/08/24 12:21:23;;;;;;;7.7;7;;;;;;;;;;;;;
2019/08/24 12:23:47;;;;;;;7.8;7;;;;;;;;;;;;;
2019/08/24 12:26:12;;;;;;;9.1;7.4;;;;;;;;;;;;;
2019/08/24 12:28:51;;;;;;;8.3;7.3;;;;;;;;;;;;;
2019/08/24 12:31:03;;;;;;;11.2;8.2;;;;;;;;;;;;;
2019/08/24 12:33:32;;;;;;;9.4;7.5;;;;;;;;;;;;;
2019/08/24 12:35:58;;;;;;;9.2;7.9;;;;;;;;;;;;;
2019/08/24 12:38:23;;;;;;;8.3;7.5;;;;;;;;;;;;;
2019/08/24 12:40:47;;;;;;;8.6;7.8;;;;;;;;;;;;;
2019/08/24 12:43:12;;;;;;;8.4;7.5;;;;;;;;;;;;;
2019/08/24 12:45:39;;;;;;;10;8.2;;;;;;;;;;;;;
2019/08/24 12:48:04;;;;;;;10.8;7.8;;;;;;;;;;;;;
2019/08/24 12:50:28;;;;;;;8.7;7.7;;;;;;;;;;;;;
2019/08/24 12:52:54;;;;;;;8.1;7.3;;;;;;;;;;;;;
2019/08/24 12:55:23;;;;;;;8.5;7.7;;;;;;;;;;;;;
2019/08/24 12:57:46;;;;;;;10;7.8;;;;;;;;;;;;;
2019/08/24 13:00:11;;;;;;;9.2;7;;;;;;;;;;;;;
2019/08/24 13:02:44;;;;;;;9.2;7.1;;;;;;;;;;;;;
2019/08/24 13:05:06;;;;;;;8.2;7.4;;;;;;;;;;;;;
2019/08/24 13:07:31;;;;;;;9.1;7.6;;;;;;;;;;;;;
2019/08/24 13:09:57;;;;;;;10.1;8.2;;;;;;;;;;;;;
2019/08/24 13:12:22;;;;;;;8.7;7.8;;;;;;;;;;;;;
2019/08/24 13:14:46;;;;;;;9.3;8.3;;;;;;;;;;;;;
2019/08/24 13:17:11;;;;;;;9;8.1;;;;;;;;;;;;;
2019/08/24 13:19:38;;;;;;;9;8.1;;;;;;;;;;;;;
2019/08/24 13:22:04;;;;;;;9.6;8.6;;;;;;;;;;;;;
2019/08/24 13:24:29;;;;;;;9.4;8.5;;;;;;;;;;;;;
2019/08/24 13:26:58;;;;;;;26.1;9.3;;;;;;;;;;;;;
2019/08/24 13:29:20;;;;;;;9.8;8.8;;;;;;;;;;;;;
2019/08/24 13:31:46;;;;;;;10.3;9.1;;;;;;;;;;;;;
2019/08/24 13:34:25;;;;;;;11;8.8;;;;;;;;;;;;;
2019/08/24 13:36:41;;;;;;;11.3;9;;;;;;;;;;;;;
2019/08/24 13:39:08;;;;;;;9.4;8.5;;;;;;;;;;;;;
2019/08/24 13:41:32;;;;;;;10.7;8.7;;;;;;;;;;;;;
2019/08/24 13:43:58;;;;;;;9.7;8.5;;;;;;;;;;;;;
2019/08/24 13:46:22;;;;;;;9.5;8.5;;;;;;;;;;;;;
2019/08/24 13:48:52;;;;;;;8.8;7.9;;;;;;;;;;;;;
2019/08/24 13:51:17;;;;;;;10.1;7.8;;;;;;;;;;;;;
2019/08/24 13:53:47;;;;;;;10.2;8.3;;;;;;;;;;;;;
2019/08/24 13:56:12;;;;;;;8.9;8.1;;;;;;;;;;;;;
2019/08/24 13:58:42;;;;;;;9.6;8.6;;;;;;;;;;;;;
2019/08/24 14:01:06;;;;;;;10;8.4;;;;;;;;;;;;;
2019/08/24 14:04:16;;;;;;;9.5;8.5;;;;;;;;;;;;;
2019/08/24 14:06:25;;;;;;;9.5;8.4;;;;;;;;;;;;;
2019/08/24 14:08:52;;;;;;;8.4;7.7;;;;;;;;;;;;;
2019/08/24 14:11:18;;;;;;;8.8;7.7;;;;;;;;;;;;;
2019/08/24 14:13:47;;;;;;;9;8.1;;;;;;;;;;;;;
2019/08/24 14:16:11;;;;;;;8.9;8.1;;;;;;;;;;;;;
2019/08/24 14:18:36;;;;;;;8.7;7.9;;;;;;;;;;;;;
2019/08/24 14:21:06;;;;;;;8.8;7.9;;;;;;;;;;;;;
2019/08/24 14:23:33;;;;;;;8.4;7.6;;;;;;;;;;;;;
2019/08/24 14:26:05;;;;;;;9.5;8.1;;;;;;;;;;;;;
2019/08/24 14:28:23;;;;;;;8.3;7.6;;;;;;;;;;;;;
2019/08/24 14:30:49;;;;;;;9.8;7.9;;;;;;;;;;;;;
2019/08/24 14:33:20;;;;;;;8.6;7.7;;;;;;;;;;;;;
2019/08/24 14:35:47;;;;;;;8.2;7.4;;;;;;;;;;;;;
2019/08/24 14:38:17;;;;;;;10.7;7.8;;;;;;;;;;;;;
2019/08/24 14:40:39;;;;;;;8.3;7.5;;;;;;;;;;;;;
2019/08/24 14:43:05;;;;;;;7.8;7;;;;;;;;;;;;;
2019/08/24 14:45:36;;;;;;;7.9;7.2;;;;;;;;;;;;;
2019/08/24 14:48:00;;;;;;;8.5;7.7;;;;;;;;;;;;;
2019/08/24 14:50:28;;;;;;;8.7;7.5;;;;;;;;;;;;;
2019/08/24 14:52:51;;;;;;;8.6;7.8;;;;;;;;;;;;;
2019/08/24 14:55:15;;;;;;;8.5;7.6;;;;;;;;;;;;;
2019/08/24 14:57:49;;;;;;;8.9;7.7;;;;;;;;;;;;;
2019/08/24 15:00:09;;;;;;;8;7.3;;;;;;;;;;;;;
2019/08/24 15:02:33;;;;;;;8.5;7.8;;;;;;;;;;;;;
2019/08/24 15:05:03;;;;;;;8.8;7.9;;;;;;;;;;;;;
2019/08/24 15:07:24;;;;;;;9.2;7.8;;;;;;;;;;;;;
2019/08/24 15:09:49;;;;;;;8.2;7.4;;;;;;;;;;;;;
2019/08/24 15:12:14;;;;;;;9.9;7.9;;;;;;;;;;;;;
2019/08/24 15:14:38;;;;;;;9;8.2;;;;;;;;;;;;;
2019/08/24 15:17:06;;;;;;;8.7;7.8;;;;;;;;;;;;;
2019/08/24 15:19:31;;;;;;;10;8;;;;;;;;;;;;;
2019/08/24 15:21:55;;;;;;;9.6;8.2;;;;;;;;;;;;;
2019/08/24 15:24:21;;;;;;;9.4;8.5;;;;;;;;;;;;;
2019/08/24 15:26:47;;;;;;;9.6;8.5;;;;;;;;;;;;;
2019/08/24 15:29:16;;;;;;;9.7;8.7;;;;;;;;;;;;;
2019/08/24 15:31:43;;;;;;;10.4;8.5;;;;;;;;;;;;;
2019/08/24 15:34:07;;;;;;;9.4;8.4;;;;;;;;;;;;;
2019/08/24 15:36:33;;;;;;;9.9;8.9;;;;;;;;;;;;;
2019/08/24 15:38:57;;;;;;;10.1;9.2;;;;;;;;;;;;;
2019/08/24 15:41:22;;;;;;;11.5;9.8;;;;;;;;;;;;;
2019/08/24 15:43:48;;;;;;;12.3;10.1;;;;;;;;;;;;;
2019/08/24 15:46:13;;;;;;;10.8;9.7;;;;;;;;;;;;;
2019/08/24 15:48:37;;;;;;;11.4;10;;;;;;;;;;;;;
2019/08/24 15:51:07;;;;;;;12.2;10.9;;;;;;;;;;;;;
2019/08/24 15:53:30;;;;;;;13.2;9.7;;;;;;;;;;;;;
2019/08/24 15:56:04;;;;;;;12.4;11.1;;;;;;;;;;;;;
2019/08/24 15:58:30;;;;;;;14.8;11.5;;;;;;;;;;;;;
2019/08/24 16:00:57;;;;;;;12.3;10.9;;;;;;;;;;;;;
2019/08/24 16:04:00;;;;;;;15.7;10.5;;;;;;;;;;;;;
2019/08/24 16:05:57;;;;;;;10.8;9.7;;;;;;;;;;;;;
2019/08/24 16:08:31;;;;;;;10.6;9.5;;;;;;;;;;;;;
2019/08/24 16:10:53;;;;;;;10.5;9.4;;;;;;;;;;;;;
2019/08/24 16:13:40;;;;;;;11.4;9.7;;;;;;;;;;;;;
2019/08/24 16:15:58;;;;;;;11.2;10.1;;;;;;;;;;;;;
2019/08/24 16:18:23;;;;;;;12.5;11.2;;;;;;;;;;;;;
2019/08/24 16:20:52;;;;;;;14.5;11;;;;;;;;;;;;;
2019/08/24 16:23:15;;;;;;;14.1;11.3;;;;;;;;;;;;;
2019/08/24 16:25:49;;;;;;;15;11.6;;;;;;;;;;;;;
2019/08/24 16:28:21;;;;;;;13.8;12.4;;;;;;;;;;;;;
2019/08/24 16:30:52;;;;;;;14.6;13;;;;;;;;;;;;;
2019/08/24 16:33:16;;;;;;;16.1;13;;;;;;;;;;;;;
2019/08/24 16:35:48;;;;;;;16.4;12.6;;;;;;;;;;;;;
2019/08/24 16:38:06;;;;;;;15.5;13;;;;;;;;;;;;;
2019/08/24 16:40:32;;;;;;;16.2;12.9;;;;;;;;;;;;;
2019/08/24 16:42:57;;;;;;;16.5;13.5;;;;;;;;;;;;;
2019/08/24 16:45:23;;;;;;;18.4;13.1;;;;;;;;;;;;;
2019/08/24 16:47:50;;;;;;;17.2;12.5;;;;;;;;;;;;;
2019/08/24 16:50:14;;;;;;;14.7;11.9;;;;;;;;;;;;;
2019/08/24 16:52:39;;;;;;;15.1;12.5;;;;;;;;;;;;;
2019/08/24 16:55:09;;;;;;;13.3;11.9;;;;;;;;;;;;;
2019/08/24 16:57:38;;;;;;;13.2;11.7;;;;;;;;;;;;;
2019/08/24 17:00:06;;;;;;;15.4;12.5;;;;;;;;;;;;;
2019/08/24 17:02:31;;;;;;;16.3;12.9;;;;;;;;;;;;;
2019/08/24 17:05:00;;;;;;;15.3;11.9;;;;;;;;;;;;;
2019/08/24 17:07:23;;;;;;;14.4;12.5;;;;;;;;;;;;;
2019/08/24 17:09:51;;;;;;;13.6;11.8;;;;;;;;;;;;;
2019/08/24 17:12:14;;;;;;;15.1;12.4;;;;;;;;;;;;;
2019/08/24 17:14:39;;;;;;;13.1;11.2;;;;;;;;;;;;;
2019/08/24 17:17:07;;;;;;;13.7;11.9;;;;;;;;;;;;;
2019/08/24 17:19:30;;;;;;;13.4;11.5;;;;;;;;;;;;;
2019/08/24 17:22:02;;;;;;;17.6;15.1;;;;;;;;;;;;;
2019/08/24 17:24:25;;;;;;;12.8;9.5;;;;;;;;;;;;;
2019/08/24 17:26:58;;;;;;;9.3;7.9;;;;;;;;;;;;;
2019/08/24 17:29:22;;;;;;;11.4;8.6;;;;;;;;;;;;;
2019/08/24 17:31:55;;;;;;;11.2;9.2;;;;;;;;;;;;;
2019/08/24 17:34:34;;;;;;;11.9;10.7;;;;;;;;;;;;;
2019/08/24 17:36:57;;;;;;;12.8;11.5;;;;;;;;;;;;;
2019/08/24 17:39:23;;;;;;;16.2;12.8;;;;;;;;;;;;;
2019/08/24 17:44:17;;;;;;;16.9;12.4;;;;;;;;;;;;;
2019/08/24 17:46:41;;;;;;;14.5;13;;;;;;;;;;;;;
2019/08/24 17:49:12;;;;;;;17.9;13.1;;;;;;;;;;;;;
2019/08/24 17:52:15;;;;;;;14;12.5;;;;;;;;;;;;;
2019/08/24 17:54:21;;;;;;;15.7;13.1;;;;;;;;;;;;;
2019/08/24 17:56:50;;;;;;;15;13.4;;;;;;;;;;;;;
2019/08/24 17:59:14;;;;;;;16;13.1;;;;;;;;;;;;;
2019/08/24 18:01:37;;;;;;;15.6;12.9;;;;;;;;;;;;;
2019/08/24 18:04:07;;;;;;;15;12.9;;;;;;;;;;;;;
2019/08/24 18:06:34;;;;;;;14.5;12.5;;;;;;;;;;;;;
2019/08/24 18:09:05;;;;;;;17.4;13.6;;;;;;;;;;;;;
2019/08/24 18:11:30;;;;;;;20.3;16.7;;;;;;;;;;;;;
2019/08/24 18:14:03;;;;;;;16.6;13.4;;;;;;;;;;;;;
2019/08/24 18:16:36;;;;;;;16.1;13.9;;;;;;;;;;;;;
2019/08/24 18:18:59;;;;;;;16.3;14;;;;;;;;;;;;;
2019/08/24 18:21:27;;;;;;;16.2;13.1;;;;;;;;;;;;;
2019/08/24 18:23:55;;;;;;;13.8;12.4;;;;;;;;;;;;;
2019/08/24 18:26:21;;;;;;;14.2;12.6;;;;;;;;;;;;;
2019/08/24 18:28:45;;;;;;;15;13.2;;;;;;;;;;;;;
2019/08/24 18:31:16;;;;;;;15.4;12.7;;;;;;;;;;;;;
2019/08/24 18:33:42;;;;;;;15;13.4;;;;;;;;;;;;;
2019/08/24 18:36:07;;;;;;;14.2;12.7;;;;;;;;;;;;;
2019/08/24 18:38:29;;;;;;;14.7;12.6;;;;;;;;;;;;;
2019/08/24 18:40:58;;;;;;;14.9;12.4;;;;;;;;;;;;;
2019/08/24 18:44:16;;;;;;;15.7;12.2;;;;;;;;;;;;;
2019/08/24 18:45:53;;;;;;;14;12.5;;;;;;;;;;;;;
2019/08/24 18:48:21;;;;;;;17.6;12.8;;;;;;;;;;;;;
2019/08/24 18:50:46;;;;;;;15.8;12.8;;;;;;;;;;;;;
2019/08/24 18:53:14;;;;;;;15.9;12.8;;;;;;;;;;;;;
2019/08/24 18:56:18;;;;;;;15.7;12.9;;;;;;;;;;;;;
2019/08/24 18:58:32;;;;;;;14.1;12.6;;;;;;;;;;;;;
2019/08/24 19:01:27;;;;;;;15.3;12.8;;;;;;;;;;;;;
2019/08/24 19:03:51;;;;;;;14.1;12.7;;;;;;;;;;;;;
2019/08/24 19:06:23;;;;;;;14.9;12.8;;;;;;;;;;;;;
2019/08/24 19:08:51;;;;;;;14.4;12.9;;;;;;;;;;;;;
2019/08/24 19:11:20;;;;;;;13.9;12.5;;;;;;;;;;;;;
2019/08/24 19:13:41;;;;;;;15.4;13.4;;;;;;;;;;;;;
2019/08/24 19:17:16;;;;;;;15.3;13.7;;;;;;;;;;;;;
2019/08/24 19:18:48;;;;;;;16.4;13.1;;;;;;;;;;;;;
2019/08/24 19:21:15;;;;;;;17.3;13;;;;;;;;;;;;;
2019/08/24 19:23:42;;;;;;;14.7;13.2;;;;;;;;;;;;;
2019/08/24 19:26:06;;;;;;;14.3;12.9;;;;;;;;;;;;;
2019/08/24 19:28:42;;;;;;;16.5;13.6;;;;;;;;;;;;;
2019/08/24 19:30:57;;;;;;;15.9;12.6;;;;;;;;;;;;;
2019/08/24 19:33:32;;;;;;;15.4;13.5;;;;;;;;;;;;;
2019/08/24 19:36:04;;;;;;;14.1;12.3;;;;;;;;;;;;;
2019/08/24 19:38:27;;;;;;;16.7;13.9;;;;;;;;;;;;;
2019/08/24 19:40:59;;;;;;;17.6;14.9;;;;;;;;;;;;;
2019/08/24 19:44:39;;;;;;;20.6;17.6;;;;;;;;;;;;;